sensor_id;sensor_type;location;lat;lon;timestamp;P1;durP1;ratioP1;P2;durP2;ratioP2
80647;SDS011;70012;0.000;0.000;2023-07-08T00:01:19;7.30;;;5.05;;
80647;SDS011;70012;0.000;0.000;2023-07-08T00:03:46;9.13;;;5.57;;
80647;SDS011;70012;0.000;0.000;2023-07-08T00:06:18;10.23;;;5.57;;
80647;SDS011;70012;0.000;0.000;2023-07-08T00:08:47;9.80;;;5.32;;
80647;SDS011;70012;0.000;0.000;2023-07-08T00:11:15;12.30;;;6.13;;
80647;SDS011;70012;0.000;0.000;2023-07-08T00:13:42;12.07;;;5.65;;
80647;SDS011;70012;0.000;0.000;2023-07-08T00:16:13;9.10;;;5.50;;
80647;SDS011;70012;0.000;0.000;2023-07-08T00:18:43;8.93;;;6.30;;
80647;SDS011;70012;0.000;0.000;2023-07-08T00:21:12;10.65;;;6.03;;
80647;SDS011;70012;0.000;0.000;2023-07-08T00:23:45;10.98;;;5.65;;
80647;SDS011;70012;0.000;0.000;2023-07-08T00:26:23;10.23;;;6.22;;
80647;SDS011;70012;0.000;0.000;2023-07-08T00:28:52;8.25;;;5.30;;
80647;SDS011;70012;0.000;0.000;2023-07-08T00:31:19;9.05;;;5.90;;
80647;SDS011;70012;0.000;0.000;2023-07-08T00:33:51;10.70;;;6.15;;
80647;SDS011;70012;0.000;0.000;2023-07-08T00:36:19;9.15;;;5.93;;
80647;SDS011;70012;0.000;0.000;2023-07-08T00:38:46;8.80;;;5.80;;
80647;SDS011;70012;0.000;0.000;2023-07-08T00:41:16;12.05;;;6.20;;
80647;SDS011;70012;0.000;0.000;2023-07-08T00:43:48;8.88;;;6.00;;
80647;SDS011;70012;0.000;0.000;2023-07-08T00:48:55;10.40;;;5.75;;
80647;SDS011;70012;0.000;0.000;2023-07-08T00:51:29;10.30;;;6.30;;
80647;SDS011;70012;0.000;0.000;2023-07-08T00:53:56;9.52;;;5.88;;
80647;SDS011;70012;0.000;0.000;2023-07-08T00:56:27;8.85;;;5.45;;
80647;SDS011;70012;0.000;0.000;2023-07-08T01:01:27;11.30;;;6.18;;
80647;SDS011;70012;0.000;0.000;2023-07-08T01:04:04;9.68;;;5.80;;
80647;SDS011;70012;0.000;0.000;2023-07-08T01:06:36;11.13;;;5.82;;
80647;SDS011;70012;0.000;0.000;2023-07-08T01:09:07;9.88;;;5.88;;
80647;SDS011;70012;0.000;0.000;2023-07-08T01:11:37;11.73;;;6.10;;
80647;SDS011;70012;0.000;0.000;2023-07-08T01:14:07;9.63;;;5.50;;
80647;SDS011;70012;0.000;0.000;2023-07-08T01:16:37;10.90;;;7.85;;
80647;SDS011;70012;0.000;0.000;2023-07-08T01:19:04;11.20;;;7.95;;
80647;SDS011;70012;0.000;0.000;2023-07-08T01:21:39;9.93;;;5.85;;
80647;SDS011;70012;0.000;0.000;2023-07-08T01:24:13;10.45;;;6.07;;
80647;SDS011;70012;0.000;0.000;2023-07-08T01:26:42;9.35;;;6.40;;
80647;SDS011;70012;0.000;0.000;2023-07-08T01:29:11;9.77;;;5.95;;
80647;SDS011;70012;0.000;0.000;2023-07-08T01:31:38;11.65;;;5.97;;
80647;SDS011;70012;0.000;0.000;2023-07-08T01:34:07;9.38;;;5.95;;
80647;SDS011;70012;0.000;0.000;2023-07-08T01:36:39;8.88;;;5.75;;
80647;SDS011;70012;0.000;0.000;2023-07-08T01:39:12;10.88;;;6.05;;
80647;SDS011;70012;0.000;0.000;2023-07-08T01:41:42;9.15;;;6.30;;
80647;SDS011;70012;0.000;0.000;2023-07-08T01:44:19;10.48;;;6.00;;
80647;SDS011;70012;0.000;0.000;2023-07-08T01:46:50;9.93;;;5.55;;
80647;SDS011;70012;0.000;0.000;2023-07-08T01:49:19;8.27;;;5.97;;
80647;SDS011;70012;0.000;0.000;2023-07-08T01:51:47;9.82;;;6.32;;
80647;SDS011;70012;0.000;0.000;2023-07-08T01:54:15;11.57;;;6.47;;
80647;SDS011;70012;0.000;0.000;2023-07-08T01:56:41;10.43;;;6.20;;
80647;SDS011;70012;0.000;0.000;2023-07-08T01:59:08;9.02;;;5.80;;
80647;SDS011;70012;0.000;0.000;2023-07-08T02:01:35;11.50;;;5.90;;
80647;SDS011;70012;0.000;0.000;2023-07-08T02:04:03;9.30;;;5.80;;
80647;SDS011;70012;0.000;0.000;2023-07-08T02:06:30;9.43;;;5.85;;
80647;SDS011;70012;0.000;0.000;2023-07-08T02:08:57;11.02;;;6.55;;
80647;SDS011;70012;0.000;0.000;2023-07-08T02:11:26;9.60;;;6.30;;
80647;SDS011;70012;0.000;0.000;2023-07-08T02:13:53;10.90;;;6.55;;
80647;SDS011;70012;0.000;0.000;2023-07-08T02:16:20;13.80;;;7.10;;
80647;SDS011;70012;0.000;0.000;2023-07-08T02:18:47;11.00;;;7.07;;
80647;SDS011;70012;0.000;0.000;2023-07-08T02:21:14;8.38;;;6.07;;
80647;SDS011;70012;0.000;0.000;2023-07-08T02:23:49;9.50;;;6.43;;
80647;SDS011;70012;0.000;0.000;2023-07-08T02:26:17;10.68;;;6.78;;
80647;SDS011;70012;0.000;0.000;2023-07-08T02:28:45;12.30;;;6.72;;
80647;SDS011;70012;0.000;0.000;2023-07-08T02:31:12;10.05;;;6.50;;
80647;SDS011;70012;0.000;0.000;2023-07-08T02:33:39;10.23;;;6.10;;
80647;SDS011;70012;0.000;0.000;2023-07-08T02:36:06;10.27;;;6.05;;
80647;SDS011;70012;0.000;0.000;2023-07-08T02:38:33;9.40;;;6.05;;
80647;SDS011;70012;0.000;0.000;2023-07-08T02:40:59;10.65;;;6.30;;
80647;SDS011;70012;0.000;0.000;2023-07-08T02:43:27;10.05;;;6.53;;
80647;SDS011;70012;0.000;0.000;2023-07-08T02:45:53;9.45;;;6.13;;
80647;SDS011;70012;0.000;0.000;2023-07-08T02:48:21;10.55;;;6.15;;
80647;SDS011;70012;0.000;0.000;2023-07-08T02:50:48;10.98;;;6.05;;
80647;SDS011;70012;0.000;0.000;2023-07-08T02:53:14;10.52;;;6.28;;
80647;SDS011;70012;0.000;0.000;2023-07-08T02:55:41;12.13;;;7.07;;
80647;SDS011;70012;0.000;0.000;2023-07-08T02:58:09;10.93;;;6.53;;
80647;SDS011;70012;0.000;0.000;2023-07-08T03:00:36;9.95;;;6.07;;
80647;SDS011;70012;0.000;0.000;2023-07-08T03:03:04;9.88;;;6.30;;
80647;SDS011;70012;0.000;0.000;2023-07-08T03:05:31;11.02;;;6.43;;
80647;SDS011;70012;0.000;0.000;2023-07-08T03:07:57;11.77;;;6.32;;
80647;SDS011;70012;0.000;0.000;2023-07-08T03:10:25;12.25;;;6.32;;
80647;SDS011;70012;0.000;0.000;2023-07-08T03:12:52;9.55;;;6.28;;
80647;SDS011;70012;0.000;0.000;2023-07-08T03:15:19;13.95;;;7.70;;
80647;SDS011;70012;0.000;0.000;2023-07-08T03:17:46;9.68;;;6.43;;
80647;SDS011;70012;0.000;0.000;2023-07-08T03:20:14;10.77;;;6.32;;
80647;SDS011;70012;0.000;0.000;2023-07-08T03:22:41;9.65;;;6.22;;
80647;SDS011;70012;0.000;0.000;2023-07-08T03:25:08;11.68;;;6.05;;
80647;SDS011;70012;0.000;0.000;2023-07-08T03:27:35;12.30;;;6.38;;
80647;SDS011;70012;0.000;0.000;2023-07-08T03:30:05;9.68;;;6.25;;
80647;SDS011;70012;0.000;0.000;2023-07-08T03:32:33;10.25;;;6.22;;
80647;SDS011;70012;0.000;0.000;2023-07-08T03:34:59;8.90;;;5.20;;
80647;SDS011;70012;0.000;0.000;2023-07-08T03:37:28;11.80;;;6.10;;
80647;SDS011;70012;0.000;0.000;2023-07-08T03:39:55;9.70;;;5.90;;
80647;SDS011;70012;0.000;0.000;2023-07-08T03:42:21;10.10;;;6.15;;
80647;SDS011;70012;0.000;0.000;2023-07-08T03:44:48;11.18;;;6.72;;
80647;SDS011;70012;0.000;0.000;2023-07-08T03:47:15;13.88;;;6.88;;
80647;SDS011;70012;0.000;0.000;2023-07-08T03:49:42;9.88;;;6.10;;
80647;SDS011;70012;0.000;0.000;2023-07-08T03:54:41;9.10;;;6.03;;
80647;SDS011;70012;0.000;0.000;2023-07-08T03:57:08;10.98;;;6.72;;
80647;SDS011;70012;0.000;0.000;2023-07-08T03:59:35;8.13;;;5.85;;
80647;SDS011;70012;0.000;0.000;2023-07-08T04:02:02;10.40;;;6.35;;
80647;SDS011;70012;0.000;0.000;2023-07-08T04:04:30;9.45;;;6.30;;
80647;SDS011;70012;0.000;0.000;2023-07-08T04:06:57;11.43;;;6.47;;
80647;SDS011;70012;0.000;0.000;2023-07-08T04:09:24;12.88;;;6.10;;
80647;SDS011;70012;0.000;0.000;2023-07-08T04:11:51;11.77;;;5.97;;
80647;SDS011;70012;0.000;0.000;2023-07-08T04:14:18;14.25;;;6.97;;
80647;SDS011;70012;0.000;0.000;2023-07-08T04:16:49;8.90;;;6.15;;
80647;SDS011;70012;0.000;0.000;2023-07-08T04:19:18;11.27;;;6.43;;
80647;SDS011;70012;0.000;0.000;2023-07-08T04:21:46;10.57;;;6.30;;
80647;SDS011;70012;0.000;0.000;2023-07-08T04:24:13;10.88;;;6.30;;
80647;SDS011;70012;0.000;0.000;2023-07-08T04:26:41;12.48;;;6.55;;
80647;SDS011;70012;0.000;0.000;2023-07-08T04:29:10;9.48;;;6.25;;
80647;SDS011;70012;0.000;0.000;2023-07-08T04:31:42;9.20;;;5.45;;
80647;SDS011;70012;0.000;0.000;2023-07-08T04:34:09;15.80;;;6.72;;
80647;SDS011;70012;0.000;0.000;2023-07-08T04:36:38;12.75;;;6.25;;
80647;SDS011;70012;0.000;0.000;2023-07-08T04:39:05;10.05;;;6.40;;
80647;SDS011;70012;0.000;0.000;2023-07-08T04:41:35;10.98;;;6.05;;
80647;SDS011;70012;0.000;0.000;2023-07-08T04:44:08;9.85;;;6.35;;
80647;SDS011;70012;0.000;0.000;2023-07-08T04:46:35;11.65;;;6.60;;
80647;SDS011;70012;0.000;0.000;2023-07-08T04:49:06;10.68;;;6.03;;
80647;SDS011;70012;0.000;0.000;2023-07-08T04:51:36;9.88;;;6.10;;
80647;SDS011;70012;0.000;0.000;2023-07-08T04:54:03;11.38;;;6.43;;
80647;SDS011;70012;0.000;0.000;2023-07-08T04:56:38;9.43;;;6.03;;
80647;SDS011;70012;0.000;0.000;2023-07-08T04:59:05;11.27;;;7.28;;
80647;SDS011;70012;0.000;0.000;2023-07-08T05:01:34;10.30;;;6.75;;
80647;SDS011;70012;0.000;0.000;2023-07-08T05:04:02;9.60;;;6.07;;
80647;SDS011;70012;0.000;0.000;2023-07-08T05:06:32;11.02;;;6.78;;
80647;SDS011;70012;0.000;0.000;2023-07-08T05:08:59;9.15;;;6.03;;
80647;SDS011;70012;0.000;0.000;2023-07-08T05:11:27;12.70;;;6.47;;
80647;SDS011;70012;0.000;0.000;2023-07-08T05:13:55;11.43;;;6.03;;
80647;SDS011;70012;0.000;0.000;2023-07-08T05:16:22;13.20;;;6.97;;
80647;SDS011;70012;0.000;0.000;2023-07-08T05:18:49;11.52;;;5.88;;
80647;SDS011;70012;0.000;0.000;2023-07-08T05:21:17;11.02;;;6.35;;
80647;SDS011;70012;0.000;0.000;2023-07-08T05:23:48;12.02;;;6.32;;
80647;SDS011;70012;0.000;0.000;2023-07-08T05:26:18;9.50;;;6.07;;
80647;SDS011;70012;0.000;0.000;2023-07-08T05:28:46;8.68;;;5.78;;
80647;SDS011;70012;0.000;0.000;2023-07-08T05:31:13;14.98;;;6.68;;
80647;SDS011;70012;0.000;0.000;2023-07-08T05:33:39;10.60;;;6.53;;
80647;SDS011;70012;0.000;0.000;2023-07-08T05:36:06;10.68;;;6.30;;
80647;SDS011;70012;0.000;0.000;2023-07-08T05:38:33;10.77;;;5.93;;
80647;SDS011;70012;0.000;0.000;2023-07-08T05:41:00;10.27;;;6.03;;
80647;SDS011;70012;0.000;0.000;2023-07-08T05:43:27;9.98;;;6.30;;
80647;SDS011;70012;0.000;0.000;2023-07-08T05:45:57;10.68;;;6.57;;
80647;SDS011;70012;0.000;0.000;2023-07-08T05:48:37;11.55;;;6.05;;
80647;SDS011;70012;0.000;0.000;2023-07-08T05:51:04;10.93;;;6.10;;
80647;SDS011;70012;0.000;0.000;2023-07-08T05:53:31;11.18;;;6.43;;
80647;SDS011;70012;0.000;0.000;2023-07-08T05:55:59;13.82;;;6.20;;
80647;SDS011;70012;0.000;0.000;2023-07-08T05:58:26;12.48;;;6.68;;
80647;SDS011;70012;0.000;0.000;2023-07-08T06:00:56;10.30;;;6.43;;
80647;SDS011;70012;0.000;0.000;2023-07-08T06:03:24;11.93;;;6.93;;
80647;SDS011;70012;0.000;0.000;2023-07-08T06:05:51;13.60;;;6.95;;
80647;SDS011;70012;0.000;0.000;2023-07-08T06:08:19;10.73;;;6.10;;
80647;SDS011;70012;0.000;0.000;2023-07-08T06:10:46;9.88;;;5.65;;
80647;SDS011;70012;0.000;0.000;2023-07-08T06:13:13;11.07;;;5.82;;
80647;SDS011;70012;0.000;0.000;2023-07-08T06:15:41;11.75;;;6.32;;
80647;SDS011;70012;0.000;0.000;2023-07-08T06:18:08;10.05;;;6.68;;
80647;SDS011;70012;0.000;0.000;2023-07-08T06:20:35;11.77;;;6.13;;
80647;SDS011;70012;0.000;0.000;2023-07-08T06:23:02;10.85;;;6.47;;
80647;SDS011;70012;0.000;0.000;2023-07-08T06:25:29;9.52;;;6.03;;
80647;SDS011;70012;0.000;0.000;2023-07-08T06:27:56;9.98;;;6.22;;
80647;SDS011;70012;0.000;0.000;2023-07-08T06:30:23;9.02;;;6.10;;
80647;SDS011;70012;0.000;0.000;2023-07-08T06:32:50;9.98;;;5.95;;
80647;SDS011;70012;0.000;0.000;2023-07-08T06:35:17;10.70;;;5.90;;
80647;SDS011;70012;0.000;0.000;2023-07-08T06:37:44;10.02;;;6.05;;
80647;SDS011;70012;0.000;0.000;2023-07-08T06:40:11;9.60;;;6.05;;
80647;SDS011;70012;0.000;0.000;2023-07-08T06:42:39;9.80;;;6.18;;
80647;SDS011;70012;0.000;0.000;2023-07-08T06:45:06;10.15;;;5.53;;
80647;SDS011;70012;0.000;0.000;2023-07-08T06:47:33;10.30;;;6.07;;
80647;SDS011;70012;0.000;0.000;2023-07-08T06:50:00;9.70;;;6.03;;
80647;SDS011;70012;0.000;0.000;2023-07-08T06:52:26;11.38;;;6.70;;
80647;SDS011;70012;0.000;0.000;2023-07-08T06:54:53;9.85;;;6.22;;
80647;SDS011;70012;0.000;0.000;2023-07-08T06:57:20;9.30;;;6.32;;
80647;SDS011;70012;0.000;0.000;2023-07-08T06:59:47;9.52;;;6.22;;
80647;SDS011;70012;0.000;0.000;2023-07-08T07:02:17;9.27;;;6.10;;
80647;SDS011;70012;0.000;0.000;2023-07-08T07:04:44;9.80;;;6.57;;
80647;SDS011;70012;0.000;0.000;2023-07-08T07:07:11;9.30;;;6.35;;
80647;SDS011;70012;0.000;0.000;2023-07-08T07:09:38;8.25;;;6.13;;
80647;SDS011;70012;0.000;0.000;2023-07-08T07:12:06;11.73;;;6.45;;
80647;SDS011;70012;0.000;0.000;2023-07-08T07:14:33;10.00;;;6.47;;
80647;SDS011;70012;0.000;0.000;2023-07-08T07:17:03;9.38;;;5.70;;
80647;SDS011;70012;0.000;0.000;2023-07-08T07:19:34;12.00;;;5.70;;
80647;SDS011;70012;0.000;0.000;2023-07-08T07:22:01;8.05;;;5.55;;
80647;SDS011;70012;0.000;0.000;2023-07-08T07:24:28;8.80;;;5.63;;
80647;SDS011;70012;0.000;0.000;2023-07-08T07:26:55;7.07;;;4.72;;
80647;SDS011;70012;0.000;0.000;2023-07-08T07:29:22;7.93;;;5.63;;
80647;SDS011;70012;0.000;0.000;2023-07-08T07:31:50;8.88;;;5.80;;
80647;SDS011;70012;0.000;0.000;2023-07-08T07:34:18;8.43;;;5.22;;
80647;SDS011;70012;0.000;0.000;2023-07-08T07:36:45;8.90;;;5.82;;
80647;SDS011;70012;0.000;0.000;2023-07-08T07:39:11;9.68;;;5.68;;
80647;SDS011;70012;0.000;0.000;2023-07-08T07:41:38;8.40;;;5.53;;
80647;SDS011;70012;0.000;0.000;2023-07-08T07:44:05;8.10;;;5.38;;
80647;SDS011;70012;0.000;0.000;2023-07-08T07:46:32;11.93;;;5.72;;
80647;SDS011;70012;0.000;0.000;2023-07-08T07:48:59;7.18;;;5.50;;
80647;SDS011;70012;0.000;0.000;2023-07-08T07:51:25;9.00;;;5.18;;
80647;SDS011;70012;0.000;0.000;2023-07-08T07:53:52;7.97;;;5.10;;
80647;SDS011;70012;0.000;0.000;2023-07-08T07:56:19;9.80;;;5.45;;
80647;SDS011;70012;0.000;0.000;2023-07-08T07:58:46;7.90;;;5.05;;
80647;SDS011;70012;0.000;0.000;2023-07-08T08:01:13;9.00;;;5.57;;
80647;SDS011;70012;0.000;0.000;2023-07-08T08:03:40;9.23;;;5.38;;
80647;SDS011;70012;0.000;0.000;2023-07-08T08:06:06;7.25;;;4.80;;
80647;SDS011;70012;0.000;0.000;2023-07-08T08:08:33;9.00;;;5.43;;
80647;SDS011;70012;0.000;0.000;2023-07-08T08:11:03;13.65;;;5.68;;
80647;SDS011;70012;0.000;0.000;2023-07-08T08:13:30;9.27;;;5.50;;
80647;SDS011;70012;0.000;0.000;2023-07-08T08:15:57;9.70;;;5.30;;
80647;SDS011;70012;0.000;0.000;2023-07-08T08:18:25;9.90;;;5.88;;
80647;SDS011;70012;0.000;0.000;2023-07-08T08:20:52;8.30;;;5.25;;
80647;SDS011;70012;0.000;0.000;2023-07-08T08:23:19;8.32;;;5.18;;
80647;SDS011;70012;0.000;0.000;2023-07-08T08:25:45;8.93;;;5.00;;
80647;SDS011;70012;0.000;0.000;2023-07-08T08:28:12;8.85;;;4.88;;
80647;SDS011;70012;0.000;0.000;2023-07-08T08:30:39;10.80;;;4.78;;
80647;SDS011;70012;0.000;0.000;2023-07-08T08:33:06;11.00;;;5.00;;
80647;SDS011;70012;0.000;0.000;2023-07-08T08:35:33;7.20;;;4.72;;
80647;SDS011;70012;0.000;0.000;2023-07-08T08:37:59;9.68;;;5.13;;
80647;SDS011;70012;0.000;0.000;2023-07-08T08:40:26;6.78;;;4.68;;
80647;SDS011;70012;0.000;0.000;2023-07-08T08:43:00;7.25;;;4.25;;
80647;SDS011;70012;0.000;0.000;2023-07-08T08:45:32;7.20;;;4.20;;
80647;SDS011;70012;0.000;0.000;2023-07-08T08:48:06;6.75;;;4.47;;
80647;SDS011;70012;0.000;0.000;2023-07-08T08:50:41;5.30;;;3.67;;
80647;SDS011;70012;0.000;0.000;2023-07-08T08:53:13;5.65;;;4.40;;
80647;SDS011;70012;0.000;0.000;2023-07-08T08:56:00;10.10;;;5.03;;
80647;SDS011;70012;0.000;0.000;2023-07-08T08:58:37;6.82;;;3.75;;
80647;SDS011;70012;0.000;0.000;2023-07-08T09:01:14;10.27;;;4.57;;
80647;SDS011;70012;0.000;0.000;2023-07-08T09:03:46;14.25;;;4.97;;
80647;SDS011;70012;0.000;0.000;2023-07-08T09:06:15;6.88;;;4.63;;
80647;SDS011;70012;0.000;0.000;2023-07-08T09:08:45;8.02;;;4.35;;
80647;SDS011;70012;0.000;0.000;2023-07-08T09:13:46;6.55;;;4.43;;
80647;SDS011;70012;0.000;0.000;2023-07-08T09:21:37;7.47;;;4.07;;
80647;SDS011;70012;0.000;0.000;2023-07-08T09:24:11;6.90;;;4.38;;
80647;SDS011;70012;0.000;0.000;2023-07-08T09:26:46;6.47;;;4.30;;
80647;SDS011;70012;0.000;0.000;2023-07-08T09:29:14;12.43;;;4.18;;
80647;SDS011;70012;0.000;0.000;2023-07-08T09:31:41;8.07;;;4.80;;
80647;SDS011;70012;0.000;0.000;2023-07-08T09:34:13;6.70;;;4.30;;
80647;SDS011;70012;0.000;0.000;2023-07-08T09:36:43;7.45;;;4.55;;
80647;SDS011;70012;0.000;0.000;2023-07-08T09:39:13;9.15;;;4.93;;
80647;SDS011;70012;0.000;0.000;2023-07-08T09:41:42;8.40;;;5.47;;
80647;SDS011;70012;0.000;0.000;2023-07-08T09:44:18;8.30;;;5.32;;
80647;SDS011;70012;0.000;0.000;2023-07-08T09:46:53;8.95;;;5.18;;
80647;SDS011;70012;0.000;0.000;2023-07-08T09:49:23;6.53;;;4.63;;
80647;SDS011;70012;0.000;0.000;2023-07-08T09:52:02;7.68;;;4.22;;
80647;SDS011;70012;0.000;0.000;2023-07-08T09:54:30;9.13;;;4.75;;
80647;SDS011;70012;0.000;0.000;2023-07-08T09:59:39;11.93;;;5.15;;
80647;SDS011;70012;0.000;0.000;2023-07-08T10:02:38;6.05;;;4.45;;
80647;SDS011;70012;0.000;0.000;2023-07-08T10:05:18;6.35;;;4.20;;
80647;SDS011;70012;0.000;0.000;2023-07-08T10:07:48;7.70;;;4.93;;
80647;SDS011;70012;0.000;0.000;2023-07-08T10:10:21;7.00;;;4.72;;
80647;SDS011;70012;0.000;0.000;2023-07-08T10:12:56;8.32;;;5.28;;
80647;SDS011;70012;0.000;0.000;2023-07-08T10:15:40;6.90;;;4.55;;
80647;SDS011;70012;0.000;0.000;2023-07-08T10:18:12;8.38;;;4.63;;
80647;SDS011;70012;0.000;0.000;2023-07-08T10:20:46;6.97;;;4.45;;
80647;SDS011;70012;0.000;0.000;2023-07-08T10:28:54;8.38;;;5.10;;
80647;SDS011;70012;0.000;0.000;2023-07-08T10:31:56;9.00;;;5.32;;
80647;SDS011;70012;0.000;0.000;2023-07-08T10:39:51;8.82;;;4.97;;
80647;SDS011;70012;0.000;0.000;2023-07-08T10:47:42;8.88;;;4.95;;
80647;SDS011;70012;0.000;0.000;2023-07-08T10:50:58;8.50;;;4.80;;
80647;SDS011;70012;0.000;0.000;2023-07-08T10:59:38;7.05;;;4.50;;
80647;SDS011;70012;0.000;0.000;2023-07-08T11:10:10;13.55;;;5.80;;
80647;SDS011;70012;0.000;0.000;2023-07-08T11:12:47;8.18;;;4.88;;
80647;SDS011;70012;0.000;0.000;2023-07-08T11:15:30;8.73;;;5.00;;
80647;SDS011;70012;0.000;0.000;2023-07-08T11:18:09;8.93;;;4.95;;
80647;SDS011;70012;0.000;0.000;2023-07-08T11:23:30;6.70;;;5.22;;
80647;SDS011;70012;0.000;0.000;2023-07-08T11:28:48;12.38;;;5.60;;
80647;SDS011;70012;0.000;0.000;2023-07-08T11:31:17;7.10;;;5.18;;
80647;SDS011;70012;0.000;0.000;2023-07-08T11:33:45;8.05;;;5.50;;
80647;SDS011;70012;0.000;0.000;2023-07-08T11:36:12;8.57;;;5.43;;
80647;SDS011;70012;0.000;0.000;2023-07-08T11:38:47;7.88;;;5.47;;
80647;SDS011;70012;0.000;0.000;2023-07-08T11:41:16;9.93;;;4.93;;
80647;SDS011;70012;0.000;0.000;2023-07-08T11:43:47;8.50;;;5.97;;
80647;SDS011;70012;0.000;0.000;2023-07-08T11:46:23;8.40;;;4.75;;
80647;SDS011;70012;0.000;0.000;2023-07-08T11:48:56;7.65;;;4.70;;
80647;SDS011;70012;0.000;0.000;2023-07-08T11:51:38;10.45;;;5.30;;
80647;SDS011;70012;0.000;0.000;2023-07-08T11:56:57;6.60;;;4.85;;
80647;SDS011;70012;0.000;0.000;2023-07-08T11:59:25;8.75;;;5.07;;
80647;SDS011;70012;0.000;0.000;2023-07-08T12:07:03;6.88;;;4.75;;
80647;SDS011;70012;0.000;0.000;2023-07-08T12:09:36;7.43;;;4.78;;
80647;SDS011;70012;0.000;0.000;2023-07-08T12:12:07;7.40;;;5.15;;
80647;SDS011;70012;0.000;0.000;2023-07-08T12:14:52;9.77;;;5.20;;
80647;SDS011;70012;0.000;0.000;2023-07-08T12:17:25;8.15;;;5.15;;
80647;SDS011;70012;0.000;0.000;2023-07-08T12:19:52;7.13;;;4.97;;
80647;SDS011;70012;0.000;0.000;2023-07-08T12:22:24;9.60;;;5.22;;
80647;SDS011;70012;0.000;0.000;2023-07-08T12:24:50;8.18;;;5.22;;
80647;SDS011;70012;0.000;0.000;2023-07-08T12:27:17;9.68;;;5.00;;
80647;SDS011;70012;0.000;0.000;2023-07-08T12:29:45;8.90;;;5.38;;
80647;SDS011;70012;0.000;0.000;2023-07-08T12:32:12;7.60;;;5.10;;
80647;SDS011;70012;0.000;0.000;2023-07-08T12:34:40;7.88;;;5.03;;
80647;SDS011;70012;0.000;0.000;2023-07-08T12:37:09;9.85;;;5.43;;
80647;SDS011;70012;0.000;0.000;2023-07-08T12:39:38;8.95;;;5.38;;
80647;SDS011;70012;0.000;0.000;2023-07-08T12:42:08;10.25;;;5.30;;
80647;SDS011;70012;0.000;0.000;2023-07-08T12:44:37;10.20;;;5.82;;
80647;SDS011;70012;0.000;0.000;2023-07-08T12:47:07;7.45;;;4.97;;
80647;SDS011;70012;0.000;0.000;2023-07-08T12:49:35;7.88;;;5.00;;
80647;SDS011;70012;0.000;0.000;2023-07-08T12:52:01;9.70;;;5.45;;
80647;SDS011;70012;0.000;0.000;2023-07-08T12:54:28;8.40;;;4.88;;
80647;SDS011;70012;0.000;0.000;2023-07-08T12:56:56;9.85;;;5.55;;
80647;SDS011;70012;0.000;0.000;2023-07-08T12:59:23;6.93;;;4.80;;
80647;SDS011;70012;0.000;0.000;2023-07-08T13:01:51;9.40;;;5.30;;
80647;SDS011;70012;0.000;0.000;2023-07-08T13:04:19;9.30;;;5.28;;
80647;SDS011;70012;0.000;0.000;2023-07-08T13:06:47;8.73;;;5.38;;
80647;SDS011;70012;0.000;0.000;2023-07-08T13:11:56;10.60;;;5.68;;
80647;SDS011;70012;0.000;0.000;2023-07-08T13:14:24;8.02;;;4.72;;
80647;SDS011;70012;0.000;0.000;2023-07-08T13:16:52;8.23;;;5.57;;
80647;SDS011;70012;0.000;0.000;2023-07-08T13:19:19;8.45;;;5.22;;
80647;SDS011;70012;0.000;0.000;2023-07-08T13:21:48;7.10;;;5.15;;
80647;SDS011;70012;0.000;0.000;2023-07-08T13:24:17;8.63;;;5.07;;
80647;SDS011;70012;0.000;0.000;2023-07-08T13:26:46;9.60;;;4.95;;
80647;SDS011;70012;0.000;0.000;2023-07-08T13:29:15;8.80;;;5.25;;
80647;SDS011;70012;0.000;0.000;2023-07-08T13:31:47;7.35;;;5.35;;
80647;SDS011;70012;0.000;0.000;2023-07-08T13:34:20;7.93;;;5.22;;
80647;SDS011;70012;0.000;0.000;2023-07-08T13:36:51;6.55;;;5.10;;
80647;SDS011;70012;0.000;0.000;2023-07-08T13:39:29;6.00;;;4.82;;
80647;SDS011;70012;0.000;0.000;2023-07-08T13:41:59;10.32;;;5.65;;
80647;SDS011;70012;0.000;0.000;2023-07-08T13:44:27;9.32;;;5.50;;
80647;SDS011;70012;0.000;0.000;2023-07-08T13:46:56;11.10;;;5.25;;
80647;SDS011;70012;0.000;0.000;2023-07-08T13:49:28;8.88;;;5.32;;
80647;SDS011;70012;0.000;0.000;2023-07-08T13:52:05;8.82;;;5.50;;
80647;SDS011;70012;0.000;0.000;2023-07-08T13:54:41;8.55;;;4.93;;
80647;SDS011;70012;0.000;0.000;2023-07-08T13:57:11;8.45;;;5.15;;
80647;SDS011;70012;0.000;0.000;2023-07-08T13:59:41;9.55;;;5.38;;
80647;SDS011;70012;0.000;0.000;2023-07-08T14:04:50;7.95;;;5.20;;
80647;SDS011;70012;0.000;0.000;2023-07-08T14:07:19;8.02;;;5.55;;
80647;SDS011;70012;0.000;0.000;2023-07-08T14:09:48;10.05;;;5.20;;
80647;SDS011;70012;0.000;0.000;2023-07-08T14:12:15;12.05;;;5.60;;
80647;SDS011;70012;0.000;0.000;2023-07-08T14:14:41;10.07;;;6.15;;
80647;SDS011;70012;0.000;0.000;2023-07-08T14:17:09;7.68;;;5.53;;
80647;SDS011;70012;0.000;0.000;2023-07-08T14:19:38;8.55;;;5.18;;
80647;SDS011;70012;0.000;0.000;2023-07-08T14:24:38;6.28;;;5.03;;
80647;SDS011;70012;0.000;0.000;2023-07-08T14:27:05;7.88;;;5.38;;
80647;SDS011;70012;0.000;0.000;2023-07-08T14:29:38;7.55;;;5.25;;
80647;SDS011;70012;0.000;0.000;2023-07-08T14:32:12;9.00;;;5.35;;
80647;SDS011;70012;0.000;0.000;2023-07-08T14:34:57;11.52;;;5.60;;
80647;SDS011;70012;0.000;0.000;2023-07-08T14:37:43;8.07;;;5.10;;
80647;SDS011;70012;0.000;0.000;2023-07-08T14:40:26;9.63;;;5.45;;
80647;SDS011;70012;0.000;0.000;2023-07-08T14:43:22;11.77;;;5.90;;
80647;SDS011;70012;0.000;0.000;2023-07-08T14:45:51;7.32;;;5.65;;
80647;SDS011;70012;0.000;0.000;2023-07-08T14:48:20;8.43;;;5.30;;
80647;SDS011;70012;0.000;0.000;2023-07-08T14:50:51;9.20;;;5.43;;
80647;SDS011;70012;0.000;0.000;2023-07-08T14:53:17;11.80;;;5.30;;
80647;SDS011;70012;0.000;0.000;2023-07-08T14:55:46;9.35;;;5.63;;
80647;SDS011;70012;0.000;0.000;2023-07-08T14:58:25;10.30;;;5.90;;
80647;SDS011;70012;0.000;0.000;2023-07-08T15:00:58;8.65;;;5.18;;
80647;SDS011;70012;0.000;0.000;2023-07-08T15:03:27;8.57;;;5.57;;
80647;SDS011;70012;0.000;0.000;2023-07-08T15:05:54;8.30;;;5.18;;
80647;SDS011;70012;0.000;0.000;2023-07-08T15:08:21;11.13;;;5.88;;
80647;SDS011;70012;0.000;0.000;2023-07-08T15:10:49;10.50;;;5.45;;
80647;SDS011;70012;0.000;0.000;2023-07-08T15:13:18;9.52;;;5.22;;
80647;SDS011;70012;0.000;0.000;2023-07-08T15:15:47;23.33;;;5.82;;
80647;SDS011;70012;0.000;0.000;2023-07-08T15:18:16;15.43;;;6.32;;
80647;SDS011;70012;0.000;0.000;2023-07-08T15:20:44;9.70;;;5.85;;
80647;SDS011;70012;0.000;0.000;2023-07-08T15:23:10;14.95;;;5.70;;
80647;SDS011;70012;0.000;0.000;2023-07-08T15:25:41;9.68;;;5.78;;
80647;SDS011;70012;0.000;0.000;2023-07-08T15:28:18;9.27;;;5.55;;
80647;SDS011;70012;0.000;0.000;2023-07-08T15:30:46;8.30;;;4.65;;
80647;SDS011;70012;0.000;0.000;2023-07-08T15:33:14;7.82;;;4.95;;
80647;SDS011;70012;0.000;0.000;2023-07-08T15:35:42;7.32;;;4.25;;
80647;SDS011;70012;0.000;0.000;2023-07-08T15:38:10;9.70;;;4.75;;
80647;SDS011;70012;0.000;0.000;2023-07-08T15:40:37;8.63;;;4.80;;
80647;SDS011;70012;0.000;0.000;2023-07-08T15:43:04;9.40;;;5.28;;
80647;SDS011;70012;0.000;0.000;2023-07-08T15:45:38;8.23;;;5.40;;
80647;SDS011;70012;0.000;0.000;2023-07-08T15:48:16;10.32;;;4.95;;
80647;SDS011;70012;0.000;0.000;2023-07-08T15:50:44;9.20;;;5.13;;
80647;SDS011;70012;0.000;0.000;2023-07-08T15:53:11;8.50;;;4.70;;
80647;SDS011;70012;0.000;0.000;2023-07-08T15:55:38;12.32;;;5.72;;
80647;SDS011;70012;0.000;0.000;2023-07-08T16:01:00;8.57;;;5.00;;
80647;SDS011;70012;0.000;0.000;2023-07-08T16:03:29;7.15;;;5.32;;
80647;SDS011;70012;0.000;0.000;2023-07-08T16:05:58;8.27;;;5.47;;
80647;SDS011;70012;0.000;0.000;2023-07-08T16:08:25;7.65;;;5.43;;
80647;SDS011;70012;0.000;0.000;2023-07-08T16:10:56;8.00;;;5.20;;
80647;SDS011;70012;0.000;0.000;2023-07-08T16:13:27;7.60;;;5.05;;
80647;SDS011;70012;0.000;0.000;2023-07-08T16:15:57;10.02;;;5.15;;
80647;SDS011;70012;0.000;0.000;2023-07-08T16:18:23;8.25;;;5.40;;
80647;SDS011;70012;0.000;0.000;2023-07-08T16:20:54;10.00;;;6.10;;
80647;SDS011;70012;0.000;0.000;2023-07-08T16:23:20;9.77;;;5.97;;